Terminal Aerodrome Forecast
Issued by NWS

Home | Current Version | Previous Version | Text Only | Print | Product List | Glossary On
Versions: 1 2 3 4 5 6 7 8 9 10 11 12 13 14 15 16
000
FTUS44 KEPZ 011100
TAFLRU
TAF
KLRU 011128Z 0112/0212 29007KT P6SM BKN200
      TEMPO 0112/0116 4SM BR FEW010
     FM011900 35007KT P6SM SCT250=

USA.gov is the U.S. government's official web portal to all federal, state and local government web resources and services.